sensor_id;sensor_type;location;lat;lon;timestamp;P1;durP1;ratioP1;P2;durP2;ratioP2
3845;SDS011;1938;50.812;7.738;2023-03-30T00:00:40;6.90;;;3.23;;
3845;SDS011;1938;50.812;7.738;2023-03-30T00:03:07;6.50;;;2.70;;
3845;SDS011;1938;50.812;7.738;2023-03-30T00:05:34;5.03;;;2.27;;
3845;SDS011;1938;50.812;7.738;2023-03-30T00:08:01;5.00;;;1.60;;
3845;SDS011;1938;50.812;7.738;2023-03-30T00:10:27;5.63;;;2.10;;
3845;SDS011;1938;50.812;7.738;2023-03-30T00:12:53;6.00;;;2.10;;
3845;SDS011;1938;50.812;7.738;2023-03-30T00:15:20;4.80;;;1.80;;
3845;SDS011;1938;50.812;7.738;2023-03-30T00:17:48;7.00;;;2.10;;
3845;SDS011;1938;50.812;7.738;2023-03-30T00:20:19;6.37;;;2.20;;
3845;SDS011;1938;50.812;7.738;2023-03-30T00:22:45;4.23;;;1.73;;
3845;SDS011;1938;50.812;7.738;2023-03-30T00:25:12;12.10;;;2.53;;
3845;SDS011;1938;50.812;7.738;2023-03-30T00:27:39;7.50;;;2.90;;
3845;SDS011;1938;50.812;7.738;2023-03-30T00:30:06;9.97;;;2.27;;
3845;SDS011;1938;50.812;7.738;2023-03-30T00:32:37;5.40;;;1.90;;
3845;SDS011;1938;50.812;7.738;2023-03-30T00:35:03;5.43;;;2.27;;
3845;SDS011;1938;50.812;7.738;2023-03-30T00:37:29;5.60;;;2.17;;
3845;SDS011;1938;50.812;7.738;2023-03-30T00:39:55;7.83;;;2.43;;
3845;SDS011;1938;50.812;7.738;2023-03-30T00:42:20;5.10;;;2.20;;
3845;SDS011;1938;50.812;7.738;2023-03-30T00:47:42;7.17;;;2.50;;
3845;SDS011;1938;50.812;7.738;2023-03-30T00:50:13;5.80;;;2.47;;
3845;SDS011;1938;50.812;7.738;2023-03-30T00:52:40;11.37;;;2.30;;
3845;SDS011;1938;50.812;7.738;2023-03-30T00:55:09;5.13;;;2.00;;
3845;SDS011;1938;50.812;7.738;2023-03-30T00:57:36;5.33;;;2.10;;
3845;SDS011;1938;50.812;7.738;2023-03-30T01:00:05;10.00;;;2.07;;
3845;SDS011;1938;50.812;7.738;2023-03-30T01:02:36;4.20;;;2.20;;
3845;SDS011;1938;50.812;7.738;2023-03-30T01:05:06;7.03;;;2.37;;
3845;SDS011;1938;50.812;7.738;2023-03-30T01:07:32;6.60;;;2.57;;
3845;SDS011;1938;50.812;7.738;2023-03-30T01:09:58;5.53;;;2.10;;
3845;SDS011;1938;50.812;7.738;2023-03-30T01:12:25;7.50;;;2.30;;
3845;SDS011;1938;50.812;7.738;2023-03-30T01:14:51;12.33;;;2.47;;
3845;SDS011;1938;50.812;7.738;2023-03-30T01:17:24;8.03;;;2.47;;
3845;SDS011;1938;50.812;7.738;2023-03-30T01:31:35;5.40;;;1.93;;
3845;SDS011;1938;50.812;7.738;2023-03-30T01:34:53;9.60;;;2.17;;
3845;SDS011;1938;50.812;7.738;2023-03-30T01:39:41;9.83;;;2.20;;
3845;SDS011;1938;50.812;7.738;2023-03-30T01:45:03;7.90;;;2.17;;
3845;SDS011;1938;50.812;7.738;2023-03-30T01:47:37;7.60;;;1.93;;
3845;SDS011;1938;50.812;7.738;2023-03-30T01:58:31;7.77;;;2.03;;
3845;SDS011;1938;50.812;7.738;2023-03-30T02:00:58;4.80;;;1.90;;
3845;SDS011;1938;50.812;7.738;2023-03-30T02:03:26;7.93;;;2.30;;
3845;SDS011;1938;50.812;7.738;2023-03-30T02:05:56;6.77;;;2.10;;
3845;SDS011;1938;50.812;7.738;2023-03-30T02:08:28;3.93;;;1.70;;
3845;SDS011;1938;50.812;7.738;2023-03-30T02:10:56;12.13;;;2.23;;
3845;SDS011;1938;50.812;7.738;2023-03-30T02:13:23;6.00;;;2.67;;
3845;SDS011;1938;50.812;7.738;2023-03-30T02:15:58;13.03;;;2.83;;
3845;SDS011;1938;50.812;7.738;2023-03-30T02:18:28;13.73;;;2.50;;
3845;SDS011;1938;50.812;7.738;2023-03-30T02:20:54;6.00;;;2.40;;
3845;SDS011;1938;50.812;7.738;2023-03-30T02:23:22;7.90;;;2.50;;
3845;SDS011;1938;50.812;7.738;2023-03-30T02:25:53;8.20;;;2.20;;
3845;SDS011;1938;50.812;7.738;2023-03-30T02:28:19;6.77;;;1.97;;
3845;SDS011;1938;50.812;7.738;2023-03-30T02:30:45;6.47;;;2.10;;
3845;SDS011;1938;50.812;7.738;2023-03-30T02:33:24;8.37;;;2.23;;
3845;SDS011;1938;50.812;7.738;2023-03-30T02:41:51;8.10;;;2.20;;
3845;SDS011;1938;50.812;7.738;2023-03-30T02:52:34;8.07;;;2.10;;
3845;SDS011;1938;50.812;7.738;2023-03-30T02:55:13;8.23;;;2.73;;
3845;SDS011;1938;50.812;7.738;2023-03-30T03:03:07;5.73;;;2.10;;
3845;SDS011;1938;50.812;7.738;2023-03-30T03:05:42;9.20;;;1.97;;
3845;SDS011;1938;50.812;7.738;2023-03-30T03:08:12;9.10;;;2.30;;
3845;SDS011;1938;50.812;7.738;2023-03-30T03:10:39;4.47;;;2.30;;
3845;SDS011;1938;50.812;7.738;2023-03-30T03:13:05;11.80;;;2.23;;
3845;SDS011;1938;50.812;7.738;2023-03-30T03:15:32;8.90;;;2.23;;
3845;SDS011;1938;50.812;7.738;2023-03-30T03:17:57;7.30;;;2.50;;
3845;SDS011;1938;50.812;7.738;2023-03-30T03:20:23;10.67;;;3.20;;
3845;SDS011;1938;50.812;7.738;2023-03-30T03:22:53;8.83;;;2.90;;
3845;SDS011;1938;50.812;7.738;2023-03-30T03:25:19;15.23;;;2.97;;
3845;SDS011;1938;50.812;7.738;2023-03-30T03:27:44;8.83;;;2.40;;
3845;SDS011;1938;50.812;7.738;2023-03-30T03:30:10;10.97;;;2.27;;
3845;SDS011;1938;50.812;7.738;2023-03-30T03:32:36;10.30;;;2.40;;
3845;SDS011;1938;50.812;7.738;2023-03-30T03:35:01;10.20;;;2.40;;
3845;SDS011;1938;50.812;7.738;2023-03-30T03:37:28;8.93;;;2.73;;
3845;SDS011;1938;50.812;7.738;2023-03-30T03:39:53;11.27;;;2.67;;
3845;SDS011;1938;50.812;7.738;2023-03-30T03:42:19;21.63;;;3.10;;
3845;SDS011;1938;50.812;7.738;2023-03-30T03:44:44;11.93;;;2.83;;
3845;SDS011;1938;50.812;7.738;2023-03-30T03:47:10;5.77;;;2.10;;
3845;SDS011;1938;50.812;7.738;2023-03-30T03:49:37;6.60;;;2.40;;
3845;SDS011;1938;50.812;7.738;2023-03-30T03:52:03;5.80;;;2.97;;
3845;SDS011;1938;50.812;7.738;2023-03-30T03:54:28;18.50;;;3.30;;
3845;SDS011;1938;50.812;7.738;2023-03-30T03:56:54;11.40;;;2.53;;
3845;SDS011;1938;50.812;7.738;2023-03-30T03:59:19;6.73;;;2.33;;
3845;SDS011;1938;50.812;7.738;2023-03-30T04:01:45;8.20;;;2.70;;
3845;SDS011;1938;50.812;7.738;2023-03-30T04:04:10;4.90;;;2.27;;
3845;SDS011;1938;50.812;7.738;2023-03-30T04:06:36;9.43;;;2.80;;
3845;SDS011;1938;50.812;7.738;2023-03-30T04:09:01;7.37;;;3.10;;
3845;SDS011;1938;50.812;7.738;2023-03-30T04:11:27;10.63;;;2.57;;
3845;SDS011;1938;50.812;7.738;2023-03-30T04:13:53;7.33;;;2.60;;
3845;SDS011;1938;50.812;7.738;2023-03-30T04:16:19;7.63;;;2.57;;
3845;SDS011;1938;50.812;7.738;2023-03-30T04:18:45;8.90;;;3.20;;
3845;SDS011;1938;50.812;7.738;2023-03-30T04:21:10;6.60;;;2.27;;
3845;SDS011;1938;50.812;7.738;2023-03-30T04:23:38;8.03;;;2.53;;
3845;SDS011;1938;50.812;7.738;2023-03-30T04:26:04;6.53;;;2.43;;
3845;SDS011;1938;50.812;7.738;2023-03-30T04:28:32;7.93;;;2.57;;
3845;SDS011;1938;50.812;7.738;2023-03-30T04:31:00;5.17;;;2.23;;
3845;SDS011;1938;50.812;7.738;2023-03-30T04:33:28;8.17;;;2.17;;
3845;SDS011;1938;50.812;7.738;2023-03-30T04:35:54;5.60;;;2.40;;
3845;SDS011;1938;50.812;7.738;2023-03-30T04:38:20;7.60;;;3.23;;
3845;SDS011;1938;50.812;7.738;2023-03-30T04:40:47;7.27;;;2.90;;
3845;SDS011;1938;50.812;7.738;2023-03-30T04:43:14;9.23;;;2.70;;
3845;SDS011;1938;50.812;7.738;2023-03-30T04:45:46;6.70;;;2.50;;
3845;SDS011;1938;50.812;7.738;2023-03-30T04:48:19;8.03;;;2.80;;
3845;SDS011;1938;50.812;7.738;2023-03-30T04:50:46;5.57;;;2.40;;
3845;SDS011;1938;50.812;7.738;2023-03-30T04:53:14;9.63;;;2.70;;
3845;SDS011;1938;50.812;7.738;2023-03-30T04:55:41;11.63;;;3.07;;
3845;SDS011;1938;50.812;7.738;2023-03-30T04:58:11;8.93;;;3.07;;
3845;SDS011;1938;50.812;7.738;2023-03-30T05:00:37;5.43;;;2.13;;
3845;SDS011;1938;50.812;7.738;2023-03-30T05:03:03;5.80;;;2.53;;
3845;SDS011;1938;50.812;7.738;2023-03-30T05:05:29;7.90;;;3.47;;
3845;SDS011;1938;50.812;7.738;2023-03-30T05:07:55;11.23;;;3.00;;
3845;SDS011;1938;50.812;7.738;2023-03-30T05:10:21;13.00;;;4.33;;
3845;SDS011;1938;50.812;7.738;2023-03-30T05:12:46;6.30;;;2.43;;
3845;SDS011;1938;50.812;7.738;2023-03-30T05:15:12;6.80;;;2.70;;
3845;SDS011;1938;50.812;7.738;2023-03-30T05:17:38;13.57;;;3.63;;
3845;SDS011;1938;50.812;7.738;2023-03-30T05:20:04;11.10;;;4.13;;
3845;SDS011;1938;50.812;7.738;2023-03-30T05:22:32;6.30;;;2.30;;
3845;SDS011;1938;50.812;7.738;2023-03-30T05:24:59;6.50;;;2.67;;
3845;SDS011;1938;50.812;7.738;2023-03-30T05:27:25;8.93;;;2.93;;
3845;SDS011;1938;50.812;7.738;2023-03-30T05:29:51;8.13;;;3.00;;
3845;SDS011;1938;50.812;7.738;2023-03-30T05:32:17;7.37;;;3.23;;
3845;SDS011;1938;50.812;7.738;2023-03-30T05:34:42;8.60;;;2.93;;
3845;SDS011;1938;50.812;7.738;2023-03-30T05:37:08;9.50;;;2.83;;
3845;SDS011;1938;50.812;7.738;2023-03-30T05:39:33;6.53;;;3.10;;
3845;SDS011;1938;50.812;7.738;2023-03-30T05:41:59;9.93;;;2.60;;
3845;SDS011;1938;50.812;7.738;2023-03-30T05:44:25;11.17;;;3.27;;
3845;SDS011;1938;50.812;7.738;2023-03-30T05:46:51;8.87;;;3.00;;
3845;SDS011;1938;50.812;7.738;2023-03-30T05:49:16;10.57;;;3.00;;
3845;SDS011;1938;50.812;7.738;2023-03-30T05:51:42;6.57;;;2.97;;
3845;SDS011;1938;50.812;7.738;2023-03-30T05:54:09;10.73;;;3.10;;
3845;SDS011;1938;50.812;7.738;2023-03-30T05:56:36;10.67;;;3.00;;
3845;SDS011;1938;50.812;7.738;2023-03-30T05:59:02;8.60;;;2.70;;
3845;SDS011;1938;50.812;7.738;2023-03-30T06:01:30;7.53;;;3.13;;
3845;SDS011;1938;50.812;7.738;2023-03-30T06:03:55;8.30;;;2.40;;
3845;SDS011;1938;50.812;7.738;2023-03-30T06:06:21;10.27;;;3.53;;
3845;SDS011;1938;50.812;7.738;2023-03-30T06:08:47;10.37;;;3.67;;
3845;SDS011;1938;50.812;7.738;2023-03-30T06:11:13;5.57;;;2.70;;
3845;SDS011;1938;50.812;7.738;2023-03-30T06:13:39;10.30;;;3.10;;
3845;SDS011;1938;50.812;7.738;2023-03-30T06:16:05;6.33;;;3.03;;
3845;SDS011;1938;50.812;7.738;2023-03-30T06:18:31;6.97;;;2.13;;
3845;SDS011;1938;50.812;7.738;2023-03-30T06:20:57;9.93;;;2.80;;
3845;SDS011;1938;50.812;7.738;2023-03-30T06:23:26;9.70;;;3.97;;
3845;SDS011;1938;50.812;7.738;2023-03-30T06:25:52;6.20;;;2.73;;
3845;SDS011;1938;50.812;7.738;2023-03-30T06:28:19;9.77;;;2.57;;
3845;SDS011;1938;50.812;7.738;2023-03-30T06:30:45;11.93;;;2.67;;
3845;SDS011;1938;50.812;7.738;2023-03-30T06:33:13;9.33;;;3.40;;
3845;SDS011;1938;50.812;7.738;2023-03-30T06:35:43;12.30;;;2.80;;
3845;SDS011;1938;50.812;7.738;2023-03-30T06:38:10;5.70;;;2.60;;
3845;SDS011;1938;50.812;7.738;2023-03-30T06:40:36;6.30;;;2.10;;
3845;SDS011;1938;50.812;7.738;2023-03-30T06:43:01;9.87;;;2.90;;
3845;SDS011;1938;50.812;7.738;2023-03-30T06:45:27;5.83;;;2.37;;
3845;SDS011;1938;50.812;7.738;2023-03-30T06:47:53;6.60;;;2.47;;
3845;SDS011;1938;50.812;7.738;2023-03-30T06:50:20;12.47;;;2.80;;
3845;SDS011;1938;50.812;7.738;2023-03-30T06:52:45;11.93;;;2.90;;
3845;SDS011;1938;50.812;7.738;2023-03-30T06:55:11;7.17;;;2.93;;
3845;SDS011;1938;50.812;7.738;2023-03-30T06:57:38;8.23;;;2.80;;
3845;SDS011;1938;50.812;7.738;2023-03-30T07:00:03;8.33;;;2.47;;
3845;SDS011;1938;50.812;7.738;2023-03-30T07:02:36;8.67;;;2.63;;
3845;SDS011;1938;50.812;7.738;2023-03-30T07:05:01;6.30;;;2.50;;
3845;SDS011;1938;50.812;7.738;2023-03-30T07:07:27;7.17;;;2.47;;
3845;SDS011;1938;50.812;7.738;2023-03-30T07:09:53;7.83;;;2.93;;
3845;SDS011;1938;50.812;7.738;2023-03-30T07:12:18;6.67;;;2.53;;
3845;SDS011;1938;50.812;7.738;2023-03-30T07:14:45;11.13;;;3.10;;
3845;SDS011;1938;50.812;7.738;2023-03-30T07:17:11;5.00;;;2.30;;
3845;SDS011;1938;50.812;7.738;2023-03-30T07:19:37;9.83;;;2.57;;
3845;SDS011;1938;50.812;7.738;2023-03-30T07:22:02;12.37;;;3.47;;
3845;SDS011;1938;50.812;7.738;2023-03-30T07:24:28;8.10;;;2.90;;
3845;SDS011;1938;50.812;7.738;2023-03-30T07:26:55;13.13;;;2.70;;
3845;SDS011;1938;50.812;7.738;2023-03-30T07:29:21;6.27;;;2.63;;
3845;SDS011;1938;50.812;7.738;2023-03-30T07:31:46;6.80;;;2.73;;
3845;SDS011;1938;50.812;7.738;2023-03-30T07:34:12;10.13;;;3.27;;
3845;SDS011;1938;50.812;7.738;2023-03-30T07:36:38;13.70;;;3.03;;
3845;SDS011;1938;50.812;7.738;2023-03-30T07:39:03;14.07;;;2.80;;
3845;SDS011;1938;50.812;7.738;2023-03-30T07:41:30;6.90;;;3.30;;
3845;SDS011;1938;50.812;7.738;2023-03-30T07:43:56;9.00;;;2.83;;
3845;SDS011;1938;50.812;7.738;2023-03-30T07:46:21;7.97;;;3.47;;
3845;SDS011;1938;50.812;7.738;2023-03-30T07:48:47;7.10;;;2.50;;
3845;SDS011;1938;50.812;7.738;2023-03-30T07:51:13;10.27;;;2.90;;
3845;SDS011;1938;50.812;7.738;2023-03-30T07:53:39;10.23;;;2.93;;
3845;SDS011;1938;50.812;7.738;2023-03-30T07:56:05;10.60;;;2.50;;
3845;SDS011;1938;50.812;7.738;2023-03-30T07:58:31;9.90;;;2.60;;
3845;SDS011;1938;50.812;7.738;2023-03-30T08:00:57;5.90;;;2.33;;
3845;SDS011;1938;50.812;7.738;2023-03-30T08:03:23;11.40;;;3.20;;
3845;SDS011;1938;50.812;7.738;2023-03-30T08:05:54;9.83;;;2.73;;
3845;SDS011;1938;50.812;7.738;2023-03-30T08:08:23;15.27;;;3.50;;
3845;SDS011;1938;50.812;7.738;2023-03-30T08:10:49;6.00;;;2.50;;
3845;SDS011;1938;50.812;7.738;2023-03-30T08:13:14;6.27;;;2.20;;
3845;SDS011;1938;50.812;7.738;2023-03-30T08:15:40;8.97;;;3.17;;
3845;SDS011;1938;50.812;7.738;2023-03-30T08:18:06;9.30;;;2.23;;
3845;SDS011;1938;50.812;7.738;2023-03-30T08:20:35;7.00;;;2.60;;
3845;SDS011;1938;50.812;7.738;2023-03-30T08:23:02;7.57;;;2.10;;
3845;SDS011;1938;50.812;7.738;2023-03-30T08:25:28;9.20;;;2.83;;
3845;SDS011;1938;50.812;7.738;2023-03-30T08:27:54;6.97;;;2.40;;
3845;SDS011;1938;50.812;7.738;2023-03-30T08:30:20;10.10;;;2.67;;
3845;SDS011;1938;50.812;7.738;2023-03-30T08:32:47;9.10;;;2.23;;
3845;SDS011;1938;50.812;7.738;2023-03-30T08:35:12;8.03;;;2.50;;
3845;SDS011;1938;50.812;7.738;2023-03-30T08:37:38;9.27;;;2.47;;
3845;SDS011;1938;50.812;7.738;2023-03-30T08:40:05;8.13;;;2.80;;
3845;SDS011;1938;50.812;7.738;2023-03-30T08:45:14;8.80;;;2.30;;
3845;SDS011;1938;50.812;7.738;2023-03-30T08:47:42;7.53;;;2.20;;
3845;SDS011;1938;50.812;7.738;2023-03-30T08:50:14;9.60;;;2.63;;
3845;SDS011;1938;50.812;7.738;2023-03-30T08:52:43;7.10;;;2.40;;
3845;SDS011;1938;50.812;7.738;2023-03-30T08:55:20;10.53;;;2.03;;
3845;SDS011;1938;50.812;7.738;2023-03-30T09:00:42;9.33;;;2.10;;
3845;SDS011;1938;50.812;7.738;2023-03-30T09:03:23;7.70;;;2.30;;
3845;SDS011;1938;50.812;7.738;2023-03-30T09:08:50;5.63;;;2.40;;
3845;SDS011;1938;50.812;7.738;2023-03-30T09:11:28;12.50;;;2.17;;
3845;SDS011;1938;50.812;7.738;2023-03-30T09:13:57;9.30;;;3.03;;
3845;SDS011;1938;50.812;7.738;2023-03-30T09:16:42;10.53;;;1.80;;
3845;SDS011;1938;50.812;7.738;2023-03-30T09:19:15;9.00;;;2.23;;
3845;SDS011;1938;50.812;7.738;2023-03-30T09:21:56;5.77;;;1.90;;
3845;SDS011;1938;50.812;7.738;2023-03-30T09:24:25;8.10;;;2.50;;
3845;SDS011;1938;50.812;7.738;2023-03-30T09:26:53;4.37;;;1.97;;
3845;SDS011;1938;50.812;7.738;2023-03-30T09:29:33;7.10;;;2.17;;
3845;SDS011;1938;50.812;7.738;2023-03-30T09:34:57;4.10;;;1.83;;
3845;SDS011;1938;50.812;7.738;2023-03-30T09:37:28;33.47;;;5.60;;
3845;SDS011;1938;50.812;7.738;2023-03-30T09:39:53;6.53;;;1.90;;
3845;SDS011;1938;50.812;7.738;2023-03-30T09:45:20;9.80;;;2.83;;
3845;SDS011;1938;50.812;7.738;2023-03-30T09:47:52;5.90;;;1.80;;
3845;SDS011;1938;50.812;7.738;2023-03-30T09:50:21;18.90;;;2.70;;
3845;SDS011;1938;50.812;7.738;2023-03-30T09:52:58;5.70;;;2.33;;
3845;SDS011;1938;50.812;7.738;2023-03-30T09:55:33;6.60;;;1.87;;
3845;SDS011;1938;50.812;7.738;2023-03-30T09:58:18;11.17;;;2.70;;
3845;SDS011;1938;50.812;7.738;2023-03-30T10:01:01;5.93;;;2.30;;
3845;SDS011;1938;50.812;7.738;2023-03-30T10:03:30;9.40;;;2.27;;
3845;SDS011;1938;50.812;7.738;2023-03-30T10:06:02;7.60;;;2.13;;
3845;SDS011;1938;50.812;7.738;2023-03-30T10:08:28;6.30;;;2.30;;
3845;SDS011;1938;50.812;7.738;2023-03-30T10:10:55;5.40;;;1.90;;
3845;SDS011;1938;50.812;7.738;2023-03-30T10:13:32;7.47;;;2.43;;
3845;SDS011;1938;50.812;7.738;2023-03-30T10:16:04;8.97;;;2.50;;
3845;SDS011;1938;50.812;7.738;2023-03-30T10:18:44;9.20;;;3.27;;
3845;SDS011;1938;50.812;7.738;2023-03-30T10:23:39;5.20;;;2.10;;
3845;SDS011;1938;50.812;7.738;2023-03-30T10:26:10;7.60;;;2.80;;
3845;SDS011;1938;50.812;7.738;2023-03-30T10:28:39;6.23;;;1.77;;
3845;SDS011;1938;50.812;7.738;2023-03-30T10:31:19;6.30;;;1.93;;
3845;SDS011;1938;50.812;7.738;2023-03-30T10:33:47;3.97;;;1.67;;
3845;SDS011;1938;50.812;7.738;2023-03-30T10:36:14;4.93;;;1.47;;
3845;SDS011;1938;50.812;7.738;2023-03-30T10:38:41;2.87;;;0.90;;
3845;SDS011;1938;50.812;7.738;2023-03-30T10:41:08;3.43;;;1.63;;
3845;SDS011;1938;50.812;7.738;2023-03-30T10:43:40;2.00;;;0.73;;
3845;SDS011;1938;50.812;7.738;2023-03-30T10:46:11;7.50;;;1.57;;
3845;SDS011;1938;50.812;7.738;2023-03-30T10:57:00;3.43;;;1.10;;
3845;SDS011;1938;50.812;7.738;2023-03-30T10:59:37;8.53;;;1.37;;
3845;SDS011;1938;50.812;7.738;2023-03-30T11:04:49;3.83;;;1.00;;
3845;SDS011;1938;50.812;7.738;2023-03-30T11:07:29;5.80;;;1.17;;
3845;SDS011;1938;50.812;7.738;2023-03-30T11:09:57;4.53;;;0.90;;
3845;SDS011;1938;50.812;7.738;2023-03-30T11:12:32;2.60;;;1.00;;
3845;SDS011;1938;50.812;7.738;2023-03-30T11:15:08;4.10;;;1.03;;
3845;SDS011;1938;50.812;7.738;2023-03-30T11:20:30;4.20;;;1.37;;
3845;SDS011;1938;50.812;7.738;2023-03-30T11:25:33;3.63;;;1.50;;
3845;SDS011;1938;50.812;7.738;2023-03-30T11:28:09;6.60;;;1.50;;
3845;SDS011;1938;50.812;7.738;2023-03-30T11:30:43;9.13;;;1.30;;
3845;SDS011;1938;50.812;7.738;2023-03-30T11:41:21;3.03;;;0.80;;
3845;SDS011;1938;50.812;7.738;2023-03-30T11:43:55;2.90;;;1.23;;
3845;SDS011;1938;50.812;7.738;2023-03-30T11:46:23;4.67;;;2.20;;
3845;SDS011;1938;50.812;7.738;2023-03-30T11:49:01;7.60;;;2.13;;
3845;SDS011;1938;50.812;7.738;2023-03-30T11:54:22;7.17;;;2.17;;
3845;SDS011;1938;50.812;7.738;2023-03-30T11:59:54;3.63;;;1.43;;
3845;SDS011;1938;50.812;7.738;2023-03-30T12:08:01;6.47;;;2.10;;
3845;SDS011;1938;50.812;7.738;2023-03-30T12:10:50;3.40;;;1.20;;
3845;SDS011;1938;50.812;7.738;2023-03-30T12:13:28;8.40;;;1.50;;
3845;SDS011;1938;50.812;7.738;2023-03-30T12:15:58;10.77;;;1.40;;
3845;SDS011;1938;50.812;7.738;2023-03-30T12:26:37;3.80;;;1.00;;
3845;SDS011;1938;50.812;7.738;2023-03-30T12:34:20;4.13;;;1.00;;
3845;SDS011;1938;50.812;7.738;2023-03-30T12:36:57;2.93;;;1.30;;
3845;SDS011;1938;50.812;7.738;2023-03-30T12:39:25;4.73;;;1.67;;
3845;SDS011;1938;50.812;7.738;2023-03-30T12:42:01;2.70;;;1.00;;
3845;SDS011;1938;50.812;7.738;2023-03-30T12:44:37;7.20;;;1.13;;
3845;SDS011;1938;50.812;7.738;2023-03-30T13:03:36;3.40;;;1.00;;
3845;SDS011;1938;50.812;7.738;2023-03-30T13:06:04;3.07;;;1.03;;
3845;SDS011;1938;50.812;7.738;2023-03-30T13:08:40;2.93;;;0.90;;
3845;SDS011;1938;50.812;7.738;2023-03-30T13:11:16;3.17;;;0.90;;
3845;SDS011;1938;50.812;7.738;2023-03-30T13:13:50;3.60;;;0.97;;
3845;SDS011;1938;50.812;7.738;2023-03-30T13:19:18;4.30;;;1.13;;
3845;SDS011;1938;50.812;7.738;2023-03-30T13:22:16;3.90;;;1.00;;
3845;SDS011;1938;50.812;7.738;2023-03-30T13:24:45;5.83;;;1.10;;
3845;SDS011;1938;50.812;7.738;2023-03-30T13:27:22;4.10;;;1.00;;
3845;SDS011;1938;50.812;7.738;2023-03-30T13:30:00;4.90;;;1.10;;
3845;SDS011;1938;50.812;7.738;2023-03-30T13:40:29;5.43;;;1.40;;
3845;SDS011;1938;50.812;7.738;2023-03-30T13:43:25;4.73;;;1.20;;
3845;SDS011;1938;50.812;7.738;2023-03-30T13:46:11;4.07;;;1.70;;
3845;SDS011;1938;50.812;7.738;2023-03-30T13:51:34;6.23;;;1.47;;
3845;SDS011;1938;50.812;7.738;2023-03-30T13:54:23;4.67;;;1.87;;
3845;SDS011;1938;50.812;7.738;2023-03-30T13:56:56;5.17;;;1.53;;
3845;SDS011;1938;50.812;7.738;2023-03-30T13:59:26;7.47;;;1.87;;
3845;SDS011;1938;50.812;7.738;2023-03-30T14:01:56;8.77;;;2.10;;
3845;SDS011;1938;50.812;7.738;2023-03-30T14:04:27;4.40;;;1.53;;
3845;SDS011;1938;50.812;7.738;2023-03-30T14:06:55;5.30;;;1.33;;
3845;SDS011;1938;50.812;7.738;2023-03-30T14:09:23;6.63;;;1.40;;
3845;SDS011;1938;50.812;7.738;2023-03-30T14:11:55;5.30;;;1.80;;
3845;SDS011;1938;50.812;7.738;2023-03-30T14:14:30;11.07;;;1.73;;
3845;SDS011;1938;50.812;7.738;2023-03-30T14:17:04;9.13;;;1.60;;
3845;SDS011;1938;50.812;7.738;2023-03-30T14:19:48;9.03;;;3.10;;
3845;SDS011;1938;50.812;7.738;2023-03-30T14:22:23;8.87;;;1.83;;
3845;SDS011;1938;50.812;7.738;2023-03-30T14:24:57;6.10;;;1.50;;
3845;SDS011;1938;50.812;7.738;2023-03-30T14:27:25;16.97;;;1.70;;
3845;SDS011;1938;50.812;7.738;2023-03-30T14:29:57;8.93;;;1.87;;
3845;SDS011;1938;50.812;7.738;2023-03-30T14:32:23;10.23;;;1.80;;
3845;SDS011;1938;50.812;7.738;2023-03-30T14:34:52;17.73;;;1.97;;
3845;SDS011;1938;50.812;7.738;2023-03-30T14:37:18;11.40;;;2.20;;
3845;SDS011;1938;50.812;7.738;2023-03-30T14:39:48;5.37;;;1.70;;
3845;SDS011;1938;50.812;7.738;2023-03-30T14:42:17;7.17;;;1.70;;
3845;SDS011;1938;50.812;7.738;2023-03-30T14:44:45;8.60;;;2.70;;
3845;SDS011;1938;50.812;7.738;2023-03-30T14:47:13;7.20;;;2.17;;
3845;SDS011;1938;50.812;7.738;2023-03-30T14:49:42;7.60;;;1.80;;
3845;SDS011;1938;50.812;7.738;2023-03-30T14:52:24;8.40;;;2.77;;
3845;SDS011;1938;50.812;7.738;2023-03-30T14:54:54;5.77;;;1.60;;
3845;SDS011;1938;50.812;7.738;2023-03-30T14:57:22;5.70;;;1.43;;
3845;SDS011;1938;50.812;7.738;2023-03-30T15:00:00;6.50;;;1.60;;
3845;SDS011;1938;50.812;7.738;2023-03-30T15:02:41;9.80;;;1.77;;
3845;SDS011;1938;50.812;7.738;2023-03-30T15:05:07;4.20;;;1.43;;
3845;SDS011;1938;50.812;7.738;2023-03-30T15:07:34;5.87;;;1.70;;
3845;SDS011;1938;50.812;7.738;2023-03-30T15:10:00;8.73;;;2.20;;
3845;SDS011;1938;50.812;7.738;2023-03-30T15:12:33;5.40;;;1.93;;
3845;SDS011;1938;50.812;7.738;2023-03-30T15:15:04;4.70;;;1.67;;
3845;SDS011;1938;50.812;7.738;2023-03-30T15:17:31;4.93;;;1.70;;
3845;SDS011;1938;50.812;7.738;2023-03-30T15:19:59;8.13;;;1.80;;
3845;SDS011;1938;50.812;7.738;2023-03-30T15:22:29;3.70;;;1.37;;
3845;SDS011;1938;50.812;7.738;2023-03-30T15:24:59;8.00;;;1.93;;
3845;SDS011;1938;50.812;7.738;2023-03-30T15:27:28;11.30;;;1.60;;
3845;SDS011;1938;50.812;7.738;2023-03-30T15:29:54;10.33;;;1.93;;
3845;SDS011;1938;50.812;7.738;2023-03-30T15:32:24;8.60;;;1.80;;
3845;SDS011;1938;50.812;7.738;2023-03-30T15:35:01;4.17;;;1.30;;
3845;SDS011;1938;50.812;7.738;2023-03-30T15:37:51;3.93;;;1.40;;
3845;SDS011;1938;50.812;7.738;2023-03-30T15:40:32;12.30;;;2.10;;
3845;SDS011;1938;50.812;7.738;2023-03-30T15:46:03;8.57;;;2.60;;
3845;SDS011;1938;50.812;7.738;2023-03-30T15:48:49;6.67;;;1.83;;
3845;SDS011;1938;50.812;7.738;2023-03-30T15:53:50;8.37;;;2.30;;
3845;SDS011;1938;50.812;7.738;2023-03-30T15:56:22;9.50;;;2.20;;
3845;SDS011;1938;50.812;7.738;2023-03-30T15:58:50;7.23;;;2.43;;
3845;SDS011;1938;50.812;7.738;2023-03-30T16:01:16;8.50;;;2.37;;
3845;SDS011;1938;50.812;7.738;2023-03-30T16:03:49;8.50;;;2.10;;
3845;SDS011;1938;50.812;7.738;2023-03-30T16:06:19;6.40;;;3.13;;
3845;SDS011;1938;50.812;7.738;2023-03-30T16:08:45;8.23;;;1.67;;
3845;SDS011;1938;50.812;7.738;2023-03-30T16:11:11;7.70;;;1.67;;
3845;SDS011;1938;50.812;7.738;2023-03-30T16:13:41;4.10;;;1.67;;
3845;SDS011;1938;50.812;7.738;2023-03-30T16:16:07;4.50;;;1.97;;
3845;SDS011;1938;50.812;7.738;2023-03-30T16:18:34;3.43;;;1.10;;
3845;SDS011;1938;50.812;7.738;2023-03-30T16:21:00;2.30;;;0.87;;
3845;SDS011;1938;50.812;7.738;2023-03-30T16:23:26;3.90;;;1.50;;
3845;SDS011;1938;50.812;7.738;2023-03-30T16:25:52;3.23;;;1.40;;
3845;SDS011;1938;50.812;7.738;2023-03-30T16:28:18;9.70;;;4.70;;
3845;SDS011;1938;50.812;7.738;2023-03-30T16:30:46;8.67;;;2.70;;
3845;SDS011;1938;50.812;7.738;2023-03-30T16:33:15;4.10;;;1.70;;
3845;SDS011;1938;50.812;7.738;2023-03-30T16:35:40;7.53;;;3.63;;
3845;SDS011;1938;50.812;7.738;2023-03-30T16:38:08;7.53;;;3.57;;
3845;SDS011;1938;50.812;7.738;2023-03-30T16:40:41;9.37;;;3.80;;
3845;SDS011;1938;50.812;7.738;2023-03-30T16:43:08;5.43;;;1.60;;
3845;SDS011;1938;50.812;7.738;2023-03-30T16:45:34;4.90;;;1.30;;
3845;SDS011;1938;50.812;7.738;2023-03-30T16:47:59;7.23;;;1.40;;
3845;SDS011;1938;50.812;7.738;2023-03-30T16:53:06;9.63;;;1.50;;
3845;SDS011;1938;50.812;7.738;2023-03-30T16:55:33;4.30;;;1.40;;
3845;SDS011;1938;50.812;7.738;2023-03-30T16:58:00;4.40;;;1.40;;
3845;SDS011;1938;50.812;7.738;2023-03-30T17:00:30;5.67;;;1.60;;
3845;SDS011;1938;50.812;7.738;2023-03-30T17:03:00;6.30;;;1.90;;
3845;SDS011;1938;50.812;7.738;2023-03-30T17:05:26;3.60;;;1.43;;
3845;SDS011;1938;50.812;7.738;2023-03-30T17:07:52;6.07;;;1.43;;
3845;SDS011;1938;50.812;7.738;2023-03-30T17:10:28;5.47;;;1.50;;
3845;SDS011;1938;50.812;7.738;2023-03-30T17:12:57;4.70;;;1.10;;
3845;SDS011;1938;50.812;7.738;2023-03-30T17:15:24;6.17;;;1.70;;
3845;SDS011;1938;50.812;7.738;2023-03-30T17:17:50;7.27;;;1.67;;
3845;SDS011;1938;50.812;7.738;2023-03-30T17:20:24;5.20;;;1.23;;
3845;SDS011;1938;50.812;7.738;2023-03-30T17:23:04;4.80;;;1.47;;
3845;SDS011;1938;50.812;7.738;2023-03-30T17:25:30;7.07;;;1.63;;
3845;SDS011;1938;50.812;7.738;2023-03-30T17:27:56;5.50;;;1.43;;
3845;SDS011;1938;50.812;7.738;2023-03-30T17:30:26;4.83;;;1.83;;
3845;SDS011;1938;50.812;7.738;2023-03-30T17:32:53;5.37;;;1.93;;
3845;SDS011;1938;50.812;7.738;2023-03-30T17:35:19;4.77;;;1.70;;
3845;SDS011;1938;50.812;7.738;2023-03-30T17:37:45;8.20;;;2.20;;
3845;SDS011;1938;50.812;7.738;2023-03-30T17:40:13;4.90;;;1.50;;
3845;SDS011;1938;50.812;7.738;2023-03-30T17:42:43;4.80;;;1.60;;
3845;SDS011;1938;50.812;7.738;2023-03-30T17:45:11;6.13;;;1.83;;
3845;SDS011;1938;50.812;7.738;2023-03-30T17:47:41;5.37;;;1.57;;
3845;SDS011;1938;50.812;7.738;2023-03-30T17:50:27;7.33;;;1.70;;
3845;SDS011;1938;50.812;7.738;2023-03-30T17:52:57;6.93;;;1.80;;
3845;SDS011;1938;50.812;7.738;2023-03-30T17:55:25;7.00;;;2.10;;
3845;SDS011;1938;50.812;7.738;2023-03-30T17:57:53;8.70;;;1.70;;